Terminal Aerodrome Forecast
Issued by NWS Jacksonville, FL

Home | Current Version | Previous Version | Text Only | Print | Product List | Glossary On
Versions: 1 2 3 4 5 6 7 8 9 10 11 12 13 14 15 16
758
FTUS42 KJAX 252113 AAC
TAFGNV
TAF AMD
KGNV 252113Z 2521/2618 16010KT P6SM VCSH SCT040 BKN100 BKN250
      TEMPO 2521/2523 3SM +SHRA BR BKN035
     FM252300 28005KT P6SM VCSH SCT035 SCT100 BKN200
     FM261600 27005KT P6SM VCTS SCT025CB BKN050=

USA.gov is the U.S. government's official web portal to all federal, state and local government web resources and services.